Time;durP1;ratioP1;P1;durP2;ratioP2;P2;SDS_P1;SDS_P2;PMS_P1;PMS_P2;Temp;Humidity;BMP_temperature;BMP_pressure;BME280_temperature;BME280_humidity;BME280_pressure;Samples;Min_cycle;Max_cycle;Signal;HPM_P1;HPM_P2
2022/03/07 00:00:55;;;;;;;10.60;6.75;;;-0.10;99.90;;;;;;5057400;28;20063;-70
2022/03/07 00:03:20;;;;;;;11.40;6.75;;;-0.20;99.90;;;;;;5057464;28;20047;-70
2022/03/07 00:05:46;;;;;;;10.48;6.43;;;-0.20;99.90;;;;;;5056968;28;20049;-72
2022/03/07 00:08:13;;;;;;;11.40;6.40;;;-0.20;99.90;;;;;;5057163;28;20040;-71
2022/03/07 00:10:38;;;;;;;18.13;7.50;;;-0.20;99.90;;;;;;5039576;28;20048;-72
2022/03/07 00:13:04;;;;;;;15.20;7.93;;;-0.30;99.90;;;;;;5057407;28;20049;-74
2022/03/07 00:15:30;;;;;;;13.35;6.63;;;-0.30;99.90;;;;;;5057090;28;20086;-70
2022/03/07 00:17:56;;;;;;;12.85;6.30;;;-0.30;99.90;;;;;;5039936;28;20037;-69
2022/03/07 00:20:22;;;;;;;11.32;6.75;;;-0.40;99.90;;;;;;5068548;28;20114;-70
2022/03/07 00:22:47;;;;;;;10.68;6.35;;;-0.40;99.90;;;;;;5077001;28;20088;-69
2022/03/07 00:25:14;;;;;;;10.85;6.95;;;-0.40;99.90;;;;;;5055650;28;20072;-72
2022/03/07 00:27:39;;;;;;;11.60;7.03;;;-0.40;99.90;;;;;;5057666;28;20094;-72
2022/03/07 00:30:06;;;;;;;11.57;7.50;;;-0.50;99.90;;;;;;5076257;28;20056;-71
2022/03/07 00:32:31;;;;;;;13.60;7.10;;;-0.50;99.90;;;;;;5073841;28;20106;-72
2022/03/07 00:34:57;;;;;;;11.82;7.38;;;-0.50;99.90;;;;;;5058890;28;20059;-74
2022/03/07 00:37:22;;;;;;;14.15;7.43;;;-0.50;99.90;;;;;;5059413;28;20044;-71
2022/03/07 00:39:48;;;;;;;10.70;7.15;;;-0.50;99.90;;;;;;5076887;28;20066;-72
2022/03/07 00:42:13;;;;;;;11.07;7.88;;;-0.60;99.90;;;;;;5076802;28;20124;-70
2022/03/07 00:44:39;;;;;;;11.32;7.35;;;-0.50;99.90;;;;;;5059172;28;20131;-71
2022/03/07 00:47:04;;;;;;;12.45;7.97;;;-0.60;99.90;;;;;;5076410;28;20060;-72
2022/03/07 00:49:30;;;;;;;13.30;7.80;;;-0.60;99.90;;;;;;5073037;28;20056;-72
2022/03/07 00:51:57;;;;;;;14.07;7.78;;;-0.70;99.90;;;;;;5058676;28;20453;-70
2022/03/07 00:54:22;;;;;;;13.13;8.82;;;-0.70;99.90;;;;;;5073845;28;20701;-70
2022/03/07 00:56:48;;;;;;;17.42;9.85;;;-0.70;99.90;;;;;;5057199;28;20135;-72
2022/03/07 00:59:13;;;;;;;16.85;10.43;;;-0.80;99.90;;;;;;5038744;28;20132;-72
2022/03/07 01:01:39;;;;;;;15.25;10.05;;;-0.80;99.90;;;;;;5056383;28;20045;-71
2022/03/07 01:04:05;;;;;;;19.63;13.13;;;-0.80;99.90;;;;;;5056093;28;20090;-70
2022/03/07 01:06:30;;;;;;;17.83;11.35;;;-0.80;99.90;;;;;;5038945;28;20049;-70
2022/03/07 01:08:56;;;;;;;16.60;10.73;;;-0.90;99.90;;;;;;5056309;28;20049;-71
2022/03/07 01:11:21;;;;;;;18.17;10.75;;;-0.90;99.90;;;;;;5038704;28;20057;-71
2022/03/07 01:13:47;;;;;;;18.88;11.82;;;-0.90;99.90;;;;;;5056131;28;20145;-71
2022/03/07 01:16:12;;;;;;;22.40;11.18;;;-0.80;99.90;;;;;;5038498;28;20049;-70
2022/03/07 01:18:38;;;;;;;20.83;12.23;;;-1.00;99.90;;;;;;5038716;28;20487;-72
2022/03/07 01:21:04;;;;;;;18.88;10.38;;;-1.00;99.90;;;;;;5038635;28;20057;-71
2022/03/07 01:23:29;;;;;;;18.90;11.23;;;-1.00;99.90;;;;;;5056152;28;20056;-70
2022/03/07 01:25:55;;;;;;;17.70;10.15;;;-1.00;99.90;;;;;;5053175;28;20044;-73
2022/03/07 01:28:21;;;;;;;17.60;10.10;;;-1.10;99.90;;;;;;5075363;28;20049;-73
2022/03/07 01:30:48;;;;;;;18.40;10.07;;;-1.10;99.90;;;;;;5076078;28;20444;-71
2022/03/07 01:33:14;;;;;;;14.52;9.82;;;-1.10;99.90;;;;;;5075283;28;20511;-71
2022/03/07 01:35:39;;;;;;;19.80;10.07;;;-1.10;99.90;;;;;;5057993;28;20080;-71
2022/03/07 01:38:05;;;;;;;19.45;10.43;;;-1.10;99.90;;;;;;5057777;28;20044;-70
2022/03/07 01:40:31;;;;;;;17.67;10.48;;;-1.20;99.90;;;;;;5075320;28;20139;-70
2022/03/07 01:42:56;;;;;;;18.23;10.65;;;-0.60;99.90;;;;;;5057860;28;20044;-71
2022/03/07 01:45:22;;;;;;;17.30;11.13;;;-1.20;99.90;;;;;;5058638;28;20051;-70
2022/03/07 01:47:48;;;;;;;18.25;10.02;;;-1.20;99.90;;;;;;5075701;28;20109;-71
2022/03/07 01:50:17;;;;;;;16.70;10.85;;;-1.20;99.90;;;;;;5075599;28;20417;-73
2022/03/07 01:52:44;;;;;;;16.80;10.20;;;-1.30;99.90;;;;;;5075502;28;20048;-71
2022/03/07 01:55:11;;;;;;;16.13;9.38;;;-1.30;99.90;;;;;;5066583;28;20132;-71
2022/03/07 01:57:39;;;;;;;18.48;10.30;;;-1.30;99.90;;;;;;5055192;28;20060;-71
2022/03/07 02:00:07;;;;;;;17.42;10.68;;;-1.30;99.90;;;;;;5054987;28;20099;-71
2022/03/07 02:02:33;;;;;;;16.00;9.98;;;-1.40;99.90;;;;;;5055395;28;20049;-69
2022/03/07 02:04:59;;;;;;;15.32;10.10;;;-1.40;99.90;;;;;;5055124;28;20056;-70
2022/03/07 02:07:24;;;;;;;17.50;9.70;;;-1.40;99.90;;;;;;5054677;28;20045;-71
2022/03/07 02:09:52;;;;;;;15.45;10.10;;;-1.40;99.90;;;;;;5037453;28;20059;-72
2022/03/07 02:12:18;;;;;;;19.92;10.68;;;-1.50;99.90;;;;;;5054846;28;20045;-72
2022/03/07 02:14:43;;;;;;;19.23;11.60;;;-1.50;99.90;;;;;;5055319;28;20135;-71
2022/03/07 02:17:09;;;;;;;20.33;11.35;;;-1.50;99.90;;;;;;5055036;28;20454;-71
2022/03/07 02:19:36;;;;;;;19.10;11.00;;;-1.50;99.90;;;;;;5054933;28;20533;-71
2022/03/07 02:22:04;;;;;;;19.67;11.20;;;-1.50;99.90;;;;;;5054886;28;20408;-70
2022/03/07 02:24:30;;;;;;;22.35;11.65;;;-1.50;99.90;;;;;;5037318;28;20049;-72
2022/03/07 02:27:07;;;;;;;19.15;9.70;;;-1.50;99.90;;;;;;5074668;28;20472;-71
2022/03/07 02:29:34;;;;;;;15.57;10.10;;;-1.50;99.90;;;;;;5074865;28;20044;-71
2022/03/07 02:31:59;;;;;;;15.65;9.90;;;-1.50;99.90;;;;;;5074885;28;20044;-72
2022/03/07 02:34:25;;;;;;;19.27;9.95;;;-1.50;99.90;;;;;;5074739;28;20048;-69
2022/03/07 02:36:51;;;;;;;20.77;11.00;;;-1.50;99.90;;;;;;5056722;28;20044;-72
2022/03/07 02:39:17;;;;;;;19.30;10.35;;;-1.60;99.90;;;;;;5074825;28;20090;-70
2022/03/07 02:41:42;;;;;;;14.90;9.77;;;-1.60;99.90;;;;;;5074647;28;20056;-72
2022/03/07 02:44:08;;;;;;;15.55;9.88;;;-1.60;99.90;;;;;;5074841;28;20468;-70
2022/03/07 02:46:34;;;;;;;17.90;9.20;;;-1.60;99.90;;;;;;5074977;28;20044;-70
2022/03/07 02:49:00;;;;;;;16.58;9.63;;;-1.20;99.90;;;;;;5057002;28;20040;-72
2022/03/07 02:51:26;;;;;;;16.95;10.20;;;-1.70;99.90;;;;;;5076396;28;20054;-72
2022/03/07 02:53:51;;;;;;;16.77;9.57;;;-1.70;99.90;;;;;;5078814;28;20048;-70
2022/03/07 02:56:17;;;;;;;16.40;9.18;;;-1.70;99.90;;;;;;5061371;28;20120;-71
2022/03/07 02:58:43;;;;;;;15.70;9.18;;;-1.70;99.90;;;;;;5042444;28;20040;-71
2022/03/07 03:01:09;;;;;;;16.45;9.50;;;-1.70;99.90;;;;;;5058710;28;20088;-71
2022/03/07 03:03:35;;;;;;;17.23;9.55;;;-1.70;99.90;;;;;;5056629;28;20476;-71
2022/03/07 03:06:01;;;;;;;16.02;9.68;;;-1.70;99.90;;;;;;5061298;28;20083;-72
2022/03/07 03:08:26;;;;;;;14.65;9.30;;;-1.70;99.90;;;;;;5078453;28;20032;-73
2022/03/07 03:10:54;;;;;;;16.40;10.23;;;-1.70;99.90;;;;;;5061211;28;20141;-70
2022/03/07 03:13:22;;;;;;;14.07;9.02;;;-1.70;99.90;;;;;;5061257;28;20052;-71
2022/03/07 03:15:48;;;;;;;15.90;9.90;;;-1.80;99.90;;;;;;5078019;28;20140;-70
2022/03/07 03:18:14;;;;;;;14.93;8.85;;;-1.80;99.90;;;;;;5060625;28;20123;-72
2022/03/07 03:20:40;;;;;;;12.23;8.73;;;-1.80;99.90;;;;;;5078273;28;20067;-71
2022/03/07 03:23:06;;;;;;;15.32;9.60;;;-1.80;99.90;;;;;;5060802;28;20048;-71
2022/03/07 03:25:32;;;;;;;15.40;9.75;;;-1.80;99.90;;;;;;5066955;28;20059;-70
2022/03/07 03:27:57;;;;;;;15.65;10.00;;;-1.90;99.90;;;;;;5068725;28;20048;-71
2022/03/07 03:30:23;;;;;;;13.68;9.82;;;-1.90;99.90;;;;;;5060511;28;20053;-71
2022/03/07 03:32:49;;;;;;;15.52;9.25;;;-1.90;99.90;;;;;;5078203;28;20094;-71
2022/03/07 03:35:15;;;;;;;16.42;9.55;;;-1.90;99.90;;;;;;5078005;28;20044;-72
2022/03/07 03:37:41;;;;;;;17.02;10.05;;;-1.90;99.90;;;;;;5077326;28;20052;-71
2022/03/07 03:40:09;;;;;;;18.30;8.90;;;-1.90;99.90;;;;;;5077932;28;20461;-72
2022/03/07 03:42:35;;;;;;;15.38;9.50;;;-2.00;99.90;;;;;;5078223;28;20479;-71
2022/03/07 03:45:00;;;;;;;15.20;9.27;;;-2.00;99.90;;;;;;5078019;28;20076;-73
2022/03/07 03:47:26;;;;;;;15.27;9.38;;;-2.00;99.90;;;;;;5077686;28;20079;-71
2022/03/07 03:49:52;;;;;;;15.13;9.10;;;-2.00;99.90;;;;;;5060191;28;20044;-72
2022/03/07 03:52:17;;;;;;;15.75;9.10;;;-2.00;99.90;;;;;;5059870;28;20052;-72
2022/03/07 03:54:43;;;;;;;14.80;9.73;;;-2.00;99.90;;;;;;5075271;28;20048;-71
2022/03/07 03:57:09;;;;;;;16.08;9.88;;;-2.00;99.90;;;;;;5068668;28;20116;-72
2022/03/07 03:59:34;;;;;;;17.42;9.77;;;-2.00;99.90;;;;;;5057794;28;20041;-71
2022/03/07 04:02:01;;;;;;;14.18;9.80;;;-2.10;99.90;;;;;;5040115;28;20080;-73
2022/03/07 04:04:26;;;;;;;14.07;9.63;;;-2.00;99.90;;;;;;5057284;28;20140;-71
2022/03/07 04:06:52;;;;;;;14.55;9.50;;;-2.10;99.90;;;;;;5057253;28;20069;-72
2022/03/07 04:09:19;;;;;;;15.23;9.07;;;-2.00;99.90;;;;;;5057196;28;20045;-73
2022/03/07 04:11:46;;;;;;;17.48;10.00;;;-1.40;99.90;;;;;;5056975;28;20048;-73
2022/03/07 04:14:11;;;;;;;14.55;9.27;;;-2.20;99.90;;;;;;5057066;28;20045;-71
2022/03/07 04:16:38;;;;;;;15.60;8.82;;;-2.20;99.90;;;;;;5057365;28;20124;-71
2022/03/07 04:19:10;;;;;;;15.90;10.38;;;-2.10;99.90;;;;;;5021866;28;20064;-72
2022/03/07 04:21:38;;;;;;;16.13;10.18;;;-2.20;99.90;;;;;;5057182;28;20056;-71
2022/03/07 04:24:05;;;;;;;16.88;9.48;;;-2.20;99.90;;;;;;5056953;28;20114;-72
2022/03/07 04:26:30;;;;;;;16.48;9.65;;;-2.20;99.90;;;;;;5056962;28;20067;-70
2022/03/07 04:28:56;;;;;;;17.52;10.15;;;-2.20;99.90;;;;;;5077061;28;20048;-72
2022/03/07 04:31:22;;;;;;;13.55;9.10;;;-2.20;99.90;;;;;;5077135;28;20365;-73
2022/03/07 04:33:48;;;;;;;15.43;9.38;;;-2.20;99.90;;;;;;5076384;28;20152;-73
2022/03/07 04:36:15;;;;;;;15.93;9.57;;;-1.70;99.90;;;;;;5059472;28;20119;-72
2022/03/07 04:38:41;;;;;;;12.68;9.27;;;-2.20;99.90;;;;;;5076671;28;20048;-72
2022/03/07 04:41:06;;;;;;;13.88;9.27;;;-2.20;99.90;;;;;;5076727;28;20043;-73
2022/03/07 04:43:32;;;;;;;14.88;9.52;;;-2.30;99.90;;;;;;5076980;28;20044;-71
2022/03/07 04:45:58;;;;;;;13.57;9.02;;;-2.20;99.90;;;;;;5076102;28;20456;-70
2022/03/07 04:48:25;;;;;;;16.85;9.48;;;-2.30;99.90;;;;;;5076887;28;20048;-71
2022/03/07 04:50:50;;;;;;;19.45;9.82;;;-2.30;99.90;;;;;;5041921;28;20385;-72
2022/03/07 04:53:16;;;;;;;13.02;9.57;;;-2.30;99.90;;;;;;5076251;28;20051;-72
2022/03/07 04:55:42;;;;;;;14.82;10.10;;;-2.30;99.90;;;;;;5062239;28;20120;-71
2022/03/07 04:58:08;;;;;;;13.88;9.38;;;-2.30;99.90;;;;;;5038869;28;20156;-73
2022/03/07 05:00:33;;;;;;;14.40;9.55;;;-2.30;99.90;;;;;;5056371;28;20059;-72
2022/03/07 05:02:59;;;;;;;16.00;9.55;;;-2.30;99.90;;;;;;5056538;28;20311;-71
2022/03/07 05:05:24;;;;;;;14.32;9.75;;;-2.40;99.90;;;;;;5056046;28;20041;-69
2022/03/07 05:07:50;;;;;;;15.73;9.90;;;-2.40;99.90;;;;;;5056138;28;20056;-71
2022/03/07 05:10:17;;;;;;;13.88;9.23;;;-2.40;99.90;;;;;;5039256;28;20056;-71
2022/03/07 05:12:43;;;;;;;15.48;9.63;;;-2.40;99.90;;;;;;5038693;28;20106;-71
2022/03/07 05:15:09;;;;;;;16.33;9.60;;;-2.50;99.90;;;;;;5021825;28;20048;-71
2022/03/07 05:17:42;;;;;;;13.15;9.43;;;-2.40;99.90;;;;;;5056109;28;20037;-73
2022/03/07 05:20:08;;;;;;;15.15;9.18;;;-2.50;99.90;;;;;;5055669;28;20060;-70
2022/03/07 05:22:34;;;;;;;18.00;9.95;;;-2.50;99.90;;;;;;5055767;28;20124;-72
2022/03/07 05:24:59;;;;;;;13.80;9.40;;;-2.40;99.90;;;;;;5045213;28;20468;-72
2022/03/07 05:27:25;;;;;;;15.52;10.32;;;-2.50;99.90;;;;;;5075722;28;20052;-70
2022/03/07 05:29:50;;;;;;;17.45;9.13;;;-2.50;99.90;;;;;;5058430;28;20422;-72
2022/03/07 05:32:17;;;;;;;17.67;10.05;;;-2.50;99.90;;;;;;5075758;28;20498;-72
2022/03/07 05:34:42;;;;;;;13.70;8.98;;;-2.00;99.90;;;;;;5075585;28;20052;-72
2022/03/07 05:37:08;;;;;;;18.40;10.13;;;-2.50;99.90;;;;;;5075609;28;20102;-73
2022/03/07 05:39:34;;;;;;;16.88;10.63;;;-2.60;99.90;;;;;;5058163;28;20378;-71
2022/03/07 05:41:59;;;;;;;17.13;9.32;;;-2.60;99.90;;;;;;5075109;28;20047;-71
2022/03/07 05:44:25;;;;;;;15.35;10.13;;;-2.60;99.90;;;;;;5075863;28;20455;-70
2022/03/07 05:46:50;;;;;;;17.73;10.18;;;-2.60;99.90;;;;;;5075484;28;20045;-72
2022/03/07 05:49:16;;;;;;;15.77;10.20;;;-2.60;99.90;;;;;;5057969;28;20056;-71
2022/03/07 05:51:43;;;;;;;15.88;10.45;;;-2.70;99.90;;;;;;5075627;28;20071;-71
2022/03/07 05:54:09;;;;;;;21.10;11.18;;;-2.70;99.90;;;;;;5071409;28;20048;-72
2022/03/07 05:56:35;;;;;;;16.67;10.93;;;-2.70;99.90;;;;;;5037696;28;20057;-74
2022/03/07 05:59:01;;;;;;;16.95;10.90;;;-2.70;99.90;;;;;;5055466;28;20045;-74
2022/03/07 06:01:27;;;;;;;22.35;11.20;;;-2.70;99.90;;;;;;5055283;28;20037;-71
2022/03/07 06:03:52;;;;;;;16.25;10.63;;;-2.20;99.90;;;;;;5054948;28;20086;-70
2022/03/07 06:06:18;;;;;;;15.98;10.45;;;-2.70;99.90;;;;;;5037916;28;20091;-72
2022/03/07 06:08:43;;;;;;;17.60;11.05;;;-2.70;99.90;;;;;;5038086;28;20110;-71
2022/03/07 06:11:09;;;;;;;19.00;11.32;;;-2.70;99.90;;;;;;5055023;28;20061;-70
2022/03/07 06:13:34;;;;;;;19.90;11.50;;;-2.70;99.90;;;;;;5037636;28;20059;-71
2022/03/07 06:16:00;;;;;;;20.50;11.75;;;-2.60;99.90;;;;;;5055085;28;20137;-71
2022/03/07 06:18:25;;;;;;;17.90;12.02;;;-2.20;99.90;;;;;;5038027;28;20045;-72
2022/03/07 06:20:51;;;;;;;17.65;11.80;;;-2.60;99.90;;;;;;5054607;28;20115;-71
2022/03/07 06:23:17;;;;;;;18.27;11.27;;;-2.60;99.90;;;;;;5054999;28;20053;-73
2022/03/07 06:25:42;;;;;;;19.13;11.15;;;-2.60;99.90;;;;;;5069872;28;20123;-72
2022/03/07 06:28:09;;;;;;;16.85;11.35;;;-2.50;99.90;;;;;;5063978;28;20507;-72
2022/03/07 06:30:34;;;;;;;19.08;11.68;;;-2.50;99.90;;;;;;5054990;28;20044;-72
2022/03/07 06:33:00;;;;;;;47.58;21.90;;;-2.50;99.90;;;;;;5054424;28;20038;-71
2022/03/07 06:35:25;;;;;;;41.83;21.38;;;-2.50;99.90;;;;;;5037914;28;20183;-71
2022/03/07 06:37:52;;;;;;;40.30;19.45;;;-2.40;99.90;;;;;;5054826;28;20409;-72
2022/03/07 06:40:19;;;;;;;36.92;18.73;;;-2.40;99.90;;;;;;5054378;28;20460;-72
2022/03/07 06:42:46;;;;;;;31.17;17.20;;;-2.40;99.90;;;;;;5054652;28;20071;-71
2022/03/07 06:45:13;;;;;;;29.83;17.08;;;-2.40;99.90;;;;;;5054867;28;20052;-72
2022/03/07 06:47:39;;;;;;;26.27;14.02;;;-2.40;99.90;;;;;;5054549;28;20053;-73
2022/03/07 06:50:06;;;;;;;21.50;13.40;;;-2.30;99.90;;;;;;5054470;28;20037;-71
2022/03/07 06:52:32;;;;;;;26.38;14.30;;;-2.30;99.90;;;;;;5054669;28;20054;-71
2022/03/07 06:54:58;;;;;;;37.67;16.80;;;-2.30;99.90;;;;;;5066254;28;20040;-74
2022/03/07 06:57:23;;;;;;;26.70;15.02;;;-2.20;99.90;;;;;;5056793;28;20060;-72
2022/03/07 06:59:49;;;;;;;24.67;14.43;;;-2.20;99.90;;;;;;5074512;28;20055;-74
2022/03/07 07:02:15;;;;;;;25.55;13.65;;;-2.10;99.90;;;;;;5074322;28;20480;-72
2022/03/07 07:04:41;;;;;;;22.00;13.23;;;-1.60;99.90;;;;;;5074349;28;20124;-71
2022/03/07 07:07:07;;;;;;;22.33;12.98;;;-2.10;99.90;;;;;;5056739;28;20044;-71
2022/03/07 07:09:33;;;;;;;20.52;12.25;;;-2.10;99.90;;;;;;5056717;28;20059;-71
2022/03/07 07:11:58;;;;;;;24.02;12.90;;;-2.00;99.90;;;;;;5040687;28;20048;-70
2022/03/07 07:14:24;;;;;;;21.58;13.02;;;-1.90;99.90;;;;;;5046489;28;20044;-71
2022/03/07 07:16:49;;;;;;;20.02;11.63;;;-1.50;99.90;;;;;;5074140;28;20118;-72
2022/03/07 07:19:15;;;;;;;18.08;11.95;;;-1.80;99.90;;;;;;5056458;28;20400;-71
2022/03/07 07:21:40;;;;;;;17.92;12.32;;;-1.70;99.90;;;;;;5074250;28;20066;-70
2022/03/07 07:24:07;;;;;;;18.38;12.02;;;-1.70;99.90;;;;;;5057014;28;20047;-70
2022/03/07 07:26:33;;;;;;;18.55;12.65;;;-1.60;99.90;;;;;;5074366;28;20044;-72
2022/03/07 07:28:58;;;;;;;22.55;12.43;;;-1.50;99.90;;;;;;5074003;28;20060;-70
2022/03/07 07:31:24;;;;;;;20.58;13.38;;;-1.50;99.90;;;;;;5074349;28;20045;-70
2022/03/07 07:33:50;;;;;;;19.40;11.55;;;-1.40;99.90;;;;;;5074380;28;20055;-71
2022/03/07 07:36:15;;;;;;;16.88;11.65;;;-1.20;99.90;;;;;;5056267;28;20471;-72
2022/03/07 07:38:41;;;;;;;16.85;12.48;;;-1.20;99.90;;;;;;5077390;28;20055;-71
2022/03/07 07:41:07;;;;;;;16.45;12.23;;;-1.10;99.90;;;;;;5069847;28;20083;-72
2022/03/07 07:43:33;;;;;;;18.67;12.10;;;-1.00;99.90;;;;;;5057723;28;20037;-73
2022/03/07 07:45:59;;;;;;;19.25;12.75;;;-1.00;99.90;;;;;;5057761;28;20049;-70
2022/03/07 07:48:24;;;;;;;20.35;12.60;;;-0.90;99.90;;;;;;5057537;28;20056;-72
2022/03/07 07:50:50;;;;;;;20.33;12.82;;;-0.90;99.90;;;;;;5039706;28;20045;-72
2022/03/07 07:53:16;;;;;;;20.02;13.35;;;-0.70;99.90;;;;;;5057493;28;20045;-72
2022/03/07 07:55:41;;;;;;;19.73;12.38;;;-0.70;99.90;;;;;;5040065;28;20103;-73
2022/03/07 07:58:07;;;;;;;20.55;13.82;;;-0.60;99.90;;;;;;5057828;28;20048;-71
2022/03/07 08:00:33;;;;;;;21.67;14.13;;;-0.50;99.90;;;;;;5057323;28;20053;-70
2022/03/07 08:02:58;;;;;;;30.73;16.85;;;-0.30;99.90;;;;;;5057679;28;20051;-70
2022/03/07 08:05:24;;;;;;;26.00;15.40;;;-0.20;99.90;;;;;;5057393;28;20037;-72
2022/03/07 08:07:50;;;;;;;26.80;16.15;;;-0.10;99.90;;;;;;5057383;28;20187;-71
2022/03/07 08:10:17;;;;;;;25.52;15.43;;;0.00;99.90;;;;;;5060693;28;20041;-71
2022/03/07 08:12:44;;;;;;;27.50;15.32;;;0.00;99.90;;;;;;5059563;28;20388;-71
2022/03/07 08:15:12;;;;;;;25.23;16.08;;;0.10;99.90;;;;;;5077341;28;20346;-70
2022/03/07 08:17:39;;;;;;;23.75;14.88;;;0.20;99.90;;;;;;5057006;28;20045;-72
2022/03/07 08:20:06;;;;;;;27.13;15.43;;;0.30;99.90;;;;;;5077409;28;20065;-70
2022/03/07 08:22:31;;;;;;;25.25;15.10;;;0.40;99.90;;;;;;5075552;28;20059;-72
2022/03/07 08:24:57;;;;;;;21.95;14.05;;;0.50;99.90;;;;;;5054093;28;20504;-72
2022/03/07 08:27:23;;;;;;;28.08;16.33;;;0.70;99.90;;;;;;5039614;28;20360;-70
2022/03/07 08:29:48;;;;;;;28.52;14.90;;;0.80;99.90;;;;;;5038705;28;20049;-70
2022/03/07 08:32:14;;;;;;;21.42;13.85;;;0.90;99.90;;;;;;5057060;28;20345;-70
2022/03/07 08:34:39;;;;;;;29.05;15.07;;;1.10;99.90;;;;;;5039911;28;20494;-70
2022/03/07 08:37:05;;;;;;;23.33;14.45;;;1.20;99.90;;;;;;5038913;28;20438;-71
2022/03/07 08:39:30;;;;;;;27.92;13.80;;;1.30;99.90;;;;;;5039517;28;20049;-73
2022/03/07 08:41:56;;;;;;;20.85;11.75;;;1.40;99.90;;;;;;5056466;28;20437;-71
2022/03/07 08:44:22;;;;;;;23.38;12.90;;;1.50;99.90;;;;;;5076415;28;20403;-71
2022/03/07 08:46:47;;;;;;;17.90;9.93;;;1.70;99.90;;;;;;5076956;28;20058;-70
2022/03/07 08:49:13;;;;;;;15.40;9.18;;;1.80;99.90;;;;;;5057866;28;20048;-72
2022/03/07 08:51:40;;;;;;;13.95;8.52;;;2.00;99.90;;;;;;5076437;28;20044;-69
2022/03/07 08:54:06;;;;;;;14.00;8.60;;;2.10;99.90;;;;;;5059091;28;20471;-70
2022/03/07 08:56:32;;;;;;;14.38;7.47;;;2.20;99.90;;;;;;5076618;28;20048;-72
2022/03/07 08:58:57;;;;;;;11.15;6.72;;;2.40;99.90;;;;;;5041595;28;20056;-71
2022/03/07 09:01:24;;;;;;;14.23;7.10;;;2.40;99.90;;;;;;5058836;28;20048;-73
2022/03/07 09:03:49;;;;;;;8.93;5.60;;;2.40;99.90;;;;;;5058782;28;20067;-70
2022/03/07 09:06:15;;;;;;;12.93;4.88;;;2.50;99.90;;;;;;5075853;28;20437;-71
2022/03/07 09:08:41;;;;;;;18.55;7.30;;;3.10;99.90;;;;;;5058581;28;20041;-72
2022/03/07 09:11:06;;;;;;;11.48;6.53;;;2.70;99.90;;;;;;5045406;28;20049;-72
2022/03/07 09:13:32;;;;;;;14.85;7.82;;;2.70;99.90;;;;;;5038204;28;20369;-70
2022/03/07 09:15:57;;;;;;;14.10;6.90;;;2.80;99.90;;;;;;5055881;28;20366;-70
2022/03/07 09:18:25;;;;;;;13.38;7.57;;;2.90;99.90;;;;;;5038600;28;20050;-70
2022/03/07 09:20:51;;;;;;;14.70;6.85;;;3.00;99.90;;;;;;5056081;28;20056;-71
2022/03/07 09:23:16;;;;;;;10.23;5.65;;;3.10;99.90;;;;;;5055945;28;20042;-70
2022/03/07 09:25:42;;;;;;;9.90;5.13;;;3.20;99.90;;;;;;5038547;28;20061;-70
2022/03/07 09:28:07;;;;;;;15.23;6.30;;;3.80;99.90;;;;;;5037813;28;20135;-70
2022/03/07 09:30:33;;;;;;;12.25;5.90;;;3.40;99.90;;;;;;5055353;28;20059;-72
2022/03/07 09:33:03;;;;;;;10.20;4.95;;;3.50;99.90;;;;;;5055836;28;20048;-70
2022/03/07 09:35:32;;;;;;;10.07;5.07;;;3.70;99.90;;;;;;5037964;28;20132;-70
2022/03/07 09:37:57;;;;;;;8.70;4.32;;;3.70;99.90;;;;;;5038198;28;20110;-70
2022/03/07 09:40:23;;;;;;;10.75;4.95;;;3.80;99.90;;;;;;5044199;28;20040;-72
2022/03/07 09:42:49;;;;;;;9.13;4.82;;;3.80;99.90;;;;;;5075537;28;20048;-72
2022/03/07 09:45:14;;;;;;;9.95;4.35;;;3.80;99.90;;;;;;5058338;28;20049;-72
2022/03/07 09:47:41;;;;;;;13.27;4.78;;;3.80;99.90;;;;;;5075377;28;20040;-72
2022/03/07 09:50:09;;;;;;;10.05;4.25;;;3.80;99.90;;;;;;5075409;28;20053;-71
2022/03/07 09:52:35;;;;;;;10.23;4.75;;;3.90;99.90;;;;;;5074119;28;20052;-71
2022/03/07 09:55:01;;;;;;;11.68;5.47;;;4.00;99.90;;;;;;5075144;28;20464;-71
2022/03/07 09:57:26;;;;;;;8.95;3.85;;;4.10;99.90;;;;;;5075150;28;20044;-72
2022/03/07 09:59:52;;;;;;;15.88;3.10;;;4.30;99.90;;;;;;5075430;28;20409;-70
2022/03/07 10:02:24;;;;;;;8.02;3.47;;;4.40;99.90;;;;;;5075546;28;20044;-70
2022/03/07 10:04:50;;;;;;;12.40;3.70;;;4.60;99.90;;;;;;5074742;28;20099;-71
2022/03/07 10:07:16;;;;;;;8.88;3.92;;;4.70;99.90;;;;;;5075453;28;20396;-71
2022/03/07 10:09:41;;;;;;;11.48;3.78;;;4.80;99.90;;;;;;5071707;28;20036;-73
2022/03/07 10:12:08;;;;;;;10.07;4.05;;;5.00;99.90;;;;;;5074741;28;20144;-72
2022/03/07 10:14:44;;;;;;;7.45;3.75;;;5.10;99.90;;;;;;5074584;28;20088;-72
2022/03/07 10:17:39;;;;;;;7.07;3.72;;;5.20;99.90;;;;;;5074878;28;20067;-71
2022/03/07 10:20:06;;;;;;;8.85;3.53;;;5.40;99.90;;;;;;5072741;28;20048;-71
2022/03/07 10:22:31;;;;;;;11.60;3.42;;;5.30;99.90;;;;;;5074666;28;20404;-71
2022/03/07 10:25:03;;;;;;;7.18;3.00;;;5.30;99.90;;;;;;5074439;28;20040;-71
2022/03/07 10:27:31;;;;;;;9.43;3.10;;;5.50;99.90;;;;;;5074966;28;20052;-70
2022/03/07 10:29:57;;;;;;;11.98;3.17;;;5.30;99.90;;;;;;5057557;28;20059;-72
2022/03/07 10:32:22;;;;;;;9.27;4.82;;;5.40;99.90;;;;;;5074993;28;20353;-71
2022/03/07 10:34:48;;;;;;;17.73;3.70;;;5.50;99.90;;;;;;5074814;28;20099;-72
2022/03/07 10:37:14;;;;;;;12.77;4.45;;;5.50;99.90;;;;;;5057866;28;20056;-70
2022/03/07 10:39:48;;;;;;;11.50;4.03;;;5.60;99.90;;;;;;5072389;28;20051;-71
2022/03/07 10:42:18;;;;;;;10.65;3.95;;;5.70;99.90;;;;;;5054586;28;20041;-71
2022/03/07 10:44:44;;;;;;;11.48;4.20;;;5.70;99.90;;;;;;5054696;28;20049;-73
2022/03/07 10:47:12;;;;;;;7.22;3.83;;;5.80;99.90;;;;;;5054920;28;20124;-71
2022/03/07 10:49:51;;;;;;;9.23;4.30;;;5.90;99.90;;;;;;5053993;28;20064;-70
2022/03/07 10:52:17;;;;;;;8.52;4.00;;;6.00;99.90;;;;;;5020978;28;22080;-71
2022/03/07 10:54:44;;;;;;;13.10;7.68;;;6.10;99.90;;;;;;5037298;28;20049;-70
2022/03/07 10:57:10;;;;;;;8.20;4.10;;;6.30;99.90;;;;;;5037149;28;20091;-71
2022/03/07 10:59:37;;;;;;;10.43;4.40;;;6.50;99.90;;;;;;5054599;28;20047;-70
2022/03/07 11:02:06;;;;;;;8.20;3.95;;;6.60;99.90;;;;;;5036934;28;20053;-71
2022/03/07 11:04:33;;;;;;;9.35;4.45;;;6.70;99.90;;;;;;5054109;28;20459;-70
2022/03/07 11:06:59;;;;;;;10.25;4.30;;;6.80;99.90;;;;;;5054852;28;20382;-71
2022/03/07 11:09:25;;;;;;;10.07;4.72;;;6.70;99.90;;;;;;5057118;28;20145;-71
2022/03/07 11:11:51;;;;;;;11.95;4.03;;;6.70;99.90;;;;;;5075341;28;20498;-72
2022/03/07 11:14:17;;;;;;;7.13;3.88;;;6.70;99.90;;;;;;5078568;28;20052;-71
2022/03/07 11:16:45;;;;;;;7.70;3.50;;;6.70;99.90;;;;;;5060544;28;20116;-71
2022/03/07 11:19:13;;;;;;;5.97;3.00;;;6.80;99.90;;;;;;5076950;28;20480;-71
2022/03/07 11:21:41;;;;;;;7.95;3.20;;;7.00;99.90;;;;;;5078408;28;20067;-72
2022/03/07 11:24:07;;;;;;;6.53;2.80;;;7.20;99.90;;;;;;5060375;28;20116;-70
2022/03/07 11:26:33;;;;;;;7.15;2.97;;;7.30;99.90;;;;;;5060805;28;20198;-69
2022/03/07 11:28:59;;;;;;;7.55;2.50;;;7.10;99.90;;;;;;5060295;28;20456;-72
2022/03/07 11:31:26;;;;;;;9.15;2.63;;;6.90;99.90;;;;;;5077888;28;20389;-70
2022/03/07 11:33:54;;;;;;;5.85;2.15;;;6.80;99.90;;;;;;5077780;28;20056;-72
2022/03/07 11:36:22;;;;;;;6.25;3.22;;;6.80;99.90;;;;;;5077845;28;20094;-70
2022/03/07 11:38:59;;;;;;;7.10;2.58;;;6.80;99.90;;;;;;5060671;28;20140;-71
2022/03/07 11:41:30;;;;;;;8.77;3.20;;;6.90;99.90;;;;;;5041295;28;20059;-71
2022/03/07 11:44:00;;;;;;;8.68;2.72;;;7.00;99.90;;;;;;5057556;28;20056;-70
2022/03/07 11:46:30;;;;;;;5.78;2.60;;;7.20;99.90;;;;;;5040554;28;20057;-74
2022/03/07 11:48:56;;;;;;;7.30;2.58;;;7.40;99.90;;;;;;5023588;28;20061;-71
2022/03/07 11:51:25;;;;;;;8.52;2.70;;;7.60;99.90;;;;;;5057536;28;20106;-71
2022/03/07 11:53:51;;;;;;;4.82;2.30;;;7.70;99.90;;;;;;5039981;28;20045;-70
2022/03/07 11:56:25;;;;;;;5.32;2.45;;;7.70;99.90;;;;;;5057654;28;20062;-71
2022/03/07 11:58:54;;;;;;;6.30;2.60;;;7.70;99.90;;;;;;5057683;28;20353;-70
2022/03/07 12:01:21;;;;;;;7.03;2.70;;;8.00;99.90;;;;;;5057483;28;20374;-71
2022/03/07 12:03:47;;;;;;;4.32;2.50;;;7.90;99.90;;;;;;5040274;28;20049;-70
2022/03/07 12:06:15;;;;;;;6.75;2.42;;;8.00;99.90;;;;;;5057585;28;20095;-72
2022/03/07 12:08:46;;;;;;;5.18;2.08;;;8.00;99.90;;;;;;5067613;28;20045;-70
2022/03/07 12:11:31;;;;;;;5.70;2.10;;;8.00;99.90;;;;;;5059560;28;20061;-70
2022/03/07 12:14:04;;;;;;;4.80;2.22;;;8.10;99.90;;;;;;5059410;28;20182;-71
2022/03/07 12:16:36;;;;;;;8.30;2.40;;;8.20;99.90;;;;;;5059735;28;20375;-72
2022/03/07 12:19:09;;;;;;;4.60;2.70;;;8.40;99.90;;;;;;5077138;28;20057;-71
2022/03/07 12:21:36;;;;;;;8.43;2.17;;;8.40;99.90;;;;;;5077496;28;20048;-70
2022/03/07 12:24:02;;;;;;;6.03;2.38;;;8.40;99.90;;;;;;5075537;28;20491;-73
2022/03/07 12:26:28;;;;;;;6.82;2.28;;;8.40;99.90;;;;;;5076785;28;20048;-72
2022/03/07 12:28:53;;;;;;;5.97;2.70;;;8.40;99.90;;;;;;5077081;28;20048;-70
2022/03/07 12:31:19;;;;;;;5.70;2.17;;;8.30;99.90;;;;;;5077179;28;20045;-71
2022/03/07 12:33:46;;;;;;;10.93;2.28;;;8.10;99.90;;;;;;5076641;28;20494;-72